createdAt,value
2022-09-15T00:01:57.041Z,-23700.22
2022-09-15T00:04:43.930Z,-23691.47
2022-09-15T00:07:31.615Z,-23693.66
2022-09-15T00:10:18.797Z,-23699.25
2022-09-15T00:13:05.842Z,-23702.41
2022-09-15T00:15:53.248Z,-23699.97
2022-09-15T00:18:40.603Z,-23700.47
2022-09-15T00:21:31.049Z,-23700.69
2022-09-15T00:24:18.255Z,-23697.53
2022-09-15T00:27:05.158Z,-23688.81
2022-09-15T00:29:52.393Z,-23683.72
2022-09-15T00:32:39.334Z,-23686.13
2022-09-15T00:35:26.312Z,-23693.91
2022-09-15T00:38:14.440Z,-23692.94
2022-09-15T00:41:02.495Z,-23693.41
2022-09-15T00:44:00.095Z,-23697.28
2022-09-15T00:47:15.238Z,-23677.91
2022-09-15T00:50:07.566Z,-23678.38
2022-09-15T00:53:01.983Z,-23678.63
2022-09-15T00:55:50.635Z,-23682.75
2022-09-15T00:58:47.896Z,-23674.25
2022-09-15T01:01:35.724Z,-23682.75
2022-09-15T01:04:22.796Z,-23673.75
2022-09-15T01:07:14.984Z,-23682.50
2022-09-15T01:10:12.287Z,-23686.13
2022-09-15T01:13:02.937Z,-23693.41
2022-09-15T01:15:54.791Z,-23685.66
2022-09-15T01:22:00.359Z,-23686.63
2022-09-15T01:25:08.930Z,-23677.41
2022-09-15T01:28:10.687Z,-23688.09
2022-09-15T01:31:15.937Z,-23682.75
2022-09-15T01:34:09.026Z,-23691.47
2022-09-15T01:37:06.179Z,-23685.19
2022-09-15T01:39:54.526Z,-23669.16
2022-09-15T01:42:44.054Z,-23673.75
2022-09-15T01:45:34.038Z,-23673.53
2022-09-15T01:48:24.652Z,-23672.56
2022-09-15T01:51:11.802Z,-23671.81
2022-09-15T01:54:01.995Z,-23666.25
2022-09-15T01:56:49.144Z,-23658.47
2022-09-15T01:59:36.068Z,-23653.88
2022-09-15T02:02:29.567Z,-23652.66
2022-09-15T02:05:30.218Z,-23653.41
2022-09-15T02:08:40.130Z,-23647.31
2022-09-15T02:11:29.030Z,-23651.44
2022-09-15T02:18:22.815Z,-23647.31
2022-09-15T02:21:19.002Z,-23648.53
2022-09-15T02:24:12.195Z,-23658.97
2022-09-15T02:27:01.178Z,-23654.13
2022-09-15T02:29:49.278Z,-23651.69
2022-09-15T02:32:38.534Z,-23644.91
2022-09-15T02:35:26.977Z,-23649.50
2022-09-15T02:38:15.194Z,-23648.78
2022-09-15T02:41:02.830Z,-23653.88
2022-09-15T02:43:50.966Z,-23647.81
2022-09-15T02:46:39.346Z,-23645.13
2022-09-15T02:49:26.412Z,-23644.16
2022-09-15T02:52:13.771Z,-23635.69
2022-09-15T02:55:01.009Z,-23643.44
2022-09-15T02:57:48.300Z,-23641.00
2022-09-15T03:00:35.254Z,-23654.13
2022-09-15T03:03:22.351Z,-23653.16
2022-09-15T03:06:19.939Z,-23653.63
2022-09-15T03:09:08.355Z,-23652.66
2022-09-15T03:11:55.239Z,-23655.09
2022-09-15T03:14:42.260Z,-23640.53
2022-09-15T03:17:29.129Z,-23647.31
2022-09-15T03:20:19.422Z,-23644.41
2022-09-15T03:23:06.269Z,-23642.47
2022-09-15T03:25:53.335Z,-23640.03
2022-09-15T03:28:40.534Z,-23631.56
2022-09-15T03:31:27.880Z,-23633.25
2022-09-15T03:34:14.805Z,-23628.41
2022-09-15T03:37:01.894Z,-23630.59
2022-09-15T03:39:49.094Z,-23637.63
2022-09-15T03:42:36.087Z,-23641.50
2022-09-15T03:45:23.022Z,-23647.31
2022-09-15T03:48:10.181Z,-23634.22
2022-09-15T03:50:57.129Z,-23641.75
2022-09-15T03:53:44.342Z,-23640.28
2022-09-15T03:56:33.023Z,-23638.84
2022-09-15T03:59:21.010Z,-23634.72
2022-09-15T04:02:08.307Z,-23638.09
2022-09-15T04:04:55.475Z,-23641.75
2022-09-15T04:07:42.359Z,-23633.75
2022-09-15T04:10:29.443Z,-23623.06
2022-09-15T04:13:16.313Z,-23632.78
2022-09-15T04:16:15.370Z,-23631.78
2022-09-15T04:19:02.435Z,-23631.56
2022-09-15T04:21:49.475Z,-23626.94
2022-09-15T04:24:36.435Z,-23625.50
2022-09-15T04:27:23.542Z,-23621.59
2022-09-15T04:30:10.811Z,-23623.56
2022-09-15T04:32:57.795Z,-23632.28
2022-09-15T04:35:44.676Z,-23632.03
2022-09-15T04:38:31.885Z,-23631.31
2022-09-15T04:41:19.570Z,-23630.09
2022-09-15T04:44:06.545Z,-23622.81
2022-09-15T04:46:54.698Z,-23621.13
2022-09-15T04:49:41.718Z,-23630.59
2022-09-15T04:52:28.592Z,-23632.78
2022-09-15T04:55:15.639Z,-23631.78
2022-09-15T04:58:03.175Z,-23634.97
2022-09-15T05:00:50.295Z,-23626.47
2022-09-15T05:03:38.466Z,-23626.47
2022-09-15T05:06:27.494Z,-23622.59
2022-09-15T05:09:14.503Z,-23623.31
2022-09-15T05:12:01.698Z,-23617.00
2022-09-15T05:14:48.559Z,-23617.47
2022-09-15T05:17:35.648Z,-23625.50
2022-09-15T05:20:22.750Z,-23632.03
2022-09-15T05:23:10.779Z,-23643.22
2022-09-15T05:25:58.737Z,-23643.69
2022-09-15T05:28:48.078Z,-23641.25
2022-09-15T05:31:35.220Z,-23636.66
2022-09-15T05:34:22.266Z,-23631.78
2022-09-15T05:37:10.374Z,-23627.19
2022-09-15T05:39:59.689Z,-23638.34
2022-09-15T05:42:46.552Z,-23643.22
2022-09-15T05:45:33.701Z,-23636.66
2022-09-15T05:48:20.638Z,-23642.72
2022-09-15T05:51:08.161Z,-23640.53
2022-09-15T05:53:55.098Z,-23638.09
2022-09-15T05:56:42.226Z,-23643.44
2022-09-15T05:59:29.169Z,-23650.22
2022-09-15T06:02:16.277Z,-23637.38
2022-09-15T06:05:03.582Z,-23651.22
2022-09-15T06:07:54.073Z,-23654.13
2022-09-15T06:10:40.966Z,-23654.34
2022-09-15T06:13:28.006Z,-23651.69
2022-09-15T06:16:20.152Z,-23659.69
2022-09-15T06:19:07.317Z,-23671.09
2022-09-15T06:21:54.244Z,-23670.13
2022-09-15T06:24:41.484Z,-23659.69
2022-09-15T06:27:28.331Z,-23653.16
2022-09-15T06:30:15.660Z,-23664.31
2022-09-15T06:33:02.571Z,-23674.97
2022-09-15T06:35:50.012Z,-23677.66
2022-09-15T06:38:37.507Z,-23676.19
2022-09-15T06:41:24.701Z,-23675.47
2022-09-15T06:44:11.639Z,-23684.69
2022-09-15T06:46:58.779Z,-23682.75
2022-09-15T06:49:45.794Z,-23687.59
2022-09-15T06:52:32.935Z,-23691.47
2022-09-15T06:55:19.861Z,-23692.44
2022-09-15T06:58:06.884Z,-23690.03
2022-09-15T07:00:53.787Z,-23691.72
2022-09-15T07:03:43.665Z,-23690.03
2022-09-15T07:06:32.847Z,-23684.94
2022-09-15T07:09:19.859Z,-23686.88
2022-09-15T07:12:07.092Z,-23677.91
2022-09-15T07:14:54.225Z,-23680.81
2022-09-15T07:17:41.095Z,-23681.28
2022-09-15T07:20:28.159Z,-23697.78
2022-09-15T07:23:15.305Z,-23703.13
2022-09-15T07:26:14.757Z,-23721.09
2022-09-15T07:29:04.817Z,-23726.91
2022-09-15T07:31:52.220Z,-23736.63
2022-09-15T07:34:39.099Z,-23735.41
2022-09-15T07:37:26.231Z,-23731.28
2022-09-15T07:40:13.419Z,-23731.50
2022-09-15T07:43:00.502Z,-23740.97
2022-09-15T07:45:47.473Z,-23737.56
2022-09-15T07:48:34.633Z,-23740.97
2022-09-15T07:51:21.579Z,-23756.03
2022-09-15T07:54:08.791Z,-23755.78
2022-09-15T07:56:55.660Z,-23760.63
2022-09-15T07:59:42.699Z,-23767.69
2022-09-15T08:02:29.784Z,-23775.19
2022-09-15T08:05:16.898Z,-23770.59
2022-09-15T08:08:04.022Z,-23766.69
2022-09-15T08:10:50.977Z,-23759.91
2022-09-15T08:13:38.073Z,-23765.75
2022-09-15T08:16:25.250Z,-23775.94
2022-09-15T08:19:12.251Z,-23783.94
2022-09-15T08:21:59.595Z,-23790.00
2022-09-15T08:24:46.487Z,-23777.16
2022-09-15T08:27:33.557Z,-23775.44
2022-09-15T08:30:21.350Z,-23781.75
2022-09-15T08:33:08.334Z,-23790.50
2022-09-15T08:36:00.125Z,-23780.53
2022-09-15T08:38:47.509Z,-23789.53
2022-09-15T08:41:41.600Z,-23774.47
2022-09-15T08:44:47.105Z,-23792.94
2022-09-15T08:47:43.170Z,-23798.72
2022-09-15T08:50:40.985Z,-23798.97
2022-09-15T08:53:43.419Z,-23809.19
2022-09-15T08:56:30.720Z,-23810.88
2022-09-15T08:59:19.590Z,-23818.16
2022-09-15T09:02:12.558Z,-23815.72
2022-09-15T09:05:02.094Z,-23824.47
2022-09-15T09:08:09.698Z,-23827.13
2022-09-15T09:11:18.861Z,-23824.00
2022-09-15T09:14:50.138Z,-23824.22
2022-09-15T09:18:11.997Z,-23832.25
2022-09-15T09:21:13.208Z,-23845.09
2022-09-15T09:24:03.395Z,-23847.53
2022-09-15T09:26:54.548Z,-23841.72
2022-09-15T09:29:49.993Z,-23847.28
2022-09-15T09:32:46.211Z,-23841.94
2022-09-15T09:35:45.061Z,-23845.84
2022-09-15T09:38:36.330Z,-23837.34
2022-09-15T09:41:35.804Z,-23841.22
2022-09-15T09:44:32.046Z,-23841.94
2022-09-15T09:47:20.053Z,-23845.84
2022-09-15T09:50:43.316Z,-23851.19
2022-09-15T09:53:33.670Z,-23857.72
2022-09-15T09:56:25.930Z,-23869.13
2022-09-15T09:59:31.272Z,-23879.34
2022-09-15T10:02:24.947Z,-23883.69
2022-09-15T10:05:19.450Z,-23879.59
2022-09-15T10:08:06.915Z,-23880.78
2022-09-15T10:10:56.274Z,-23878.84
2022-09-15T10:13:54.675Z,-23879.09
2022-09-15T10:16:41.955Z,-23887.84
2022-09-15T10:19:32.237Z,-23894.16
2022-09-15T10:22:28.418Z,-23894.88
2022-09-15T10:25:21.376Z,-23897.78
2022-09-15T10:28:16.138Z,-23897.31
2022-09-15T10:31:11.413Z,-23909.44
2022-09-15T10:33:58.367Z,-23906.78
2022-09-15T10:36:45.956Z,-23911.88
2022-09-15T10:39:48.493Z,-23911.88
2022-09-15T10:42:47.276Z,-23908.72
2022-09-15T10:45:39.821Z,-23930.81
2022-09-15T10:48:31.945Z,-23920.84
2022-09-15T10:51:34.117Z,-23916.72
2022-09-15T10:54:58.688Z,-23933.97
2022-09-15T10:58:00.140Z,-23939.78
2022-09-15T11:01:02.234Z,-23935.44
2022-09-15T11:04:07.049Z,-23928.38
2022-09-15T11:07:19.588Z,-23942.47
2022-09-15T11:10:21.193Z,-23948.78
2022-09-15T11:13:30.844Z,-23939.56
2022-09-15T11:16:34.108Z,-23932.50
2022-09-15T11:19:36.109Z,-23930.81
2022-09-15T11:22:31.089Z,-23922.06
2022-09-15T11:25:23.174Z,-23921.34
2022-09-15T11:28:49.213Z,-23917.47
2022-09-15T11:31:43.084Z,-23911.88
2022-09-15T11:34:49.071Z,-23907.50
2022-09-15T11:37:43.580Z,-23918.19
2022-09-15T11:40:42.475Z,-23927.91
2022-09-15T11:43:52.442Z,-23937.59
2022-09-15T11:47:05.265Z,-23942.47
2022-09-15T11:50:02.000Z,-23948.78
2022-09-15T11:53:00.763Z,-23951.44
2022-09-15T11:55:53.924Z,-23960.94
2022-09-15T11:59:02.150Z,-23963.59
2022-09-15T12:02:19.830Z,-23958.50
2022-09-15T12:05:17.877Z,-23971.38
2022-09-15T12:08:16.917Z,-23982.53
2022-09-15T12:11:09.388Z,-23986.66
2022-09-15T12:13:57.269Z,-23977.69
2022-09-15T12:16:45.059Z,-23970.16
2022-09-15T12:19:48.889Z,-23975.00
2022-09-15T12:22:52.174Z,-23980.84
2022-09-15T12:25:55.768Z,-23979.84
2022-09-15T12:28:57.295Z,-23984.72
2022-09-15T12:31:45.326Z,-23987.16
2022-09-15T12:34:38.415Z,-23985.22
2022-09-15T12:37:29.765Z,-23983.25
2022-09-15T12:40:34.915Z,-23985.69
2022-09-15T12:43:23.643Z,-23967.50
2022-09-15T12:46:17.909Z,-23964.31
2022-09-15T12:49:05.020Z,-23964.81
2022-09-15T12:51:52.561Z,-23959.94
2022-09-15T12:54:43.175Z,-23958.00
2022-09-15T12:57:36.424Z,-23958.50
2022-09-15T13:00:34.235Z,-23963.09
2022-09-15T13:06:34.612Z,-23960.44
2022-09-15T13:09:28.741Z,-23952.19
2022-09-15T13:12:17.838Z,-23950.25
2022-09-15T13:15:07.791Z,-23915.28
2022-09-15T13:17:56.144Z,-23841.72
2022-09-15T13:20:54.029Z,-23814.50
2022-09-15T13:23:43.854Z,-23794.38
2022-09-15T13:26:32.099Z,-23759.91
2022-09-15T13:29:23.269Z,-23757.47
2022-09-15T13:32:32.626Z,-23745.34
2022-09-15T13:36:01.839Z,-23738.56
2022-09-15T13:39:15.802Z,-23741.47
2022-09-15T13:42:14.627Z,-23735.16
2022-09-15T13:45:29.459Z,-23720.34
2022-09-15T13:48:42.897Z,-23723.75
2022-09-15T13:51:31.453Z,-23733.94
2022-09-15T13:54:19.625Z,-23724.72
2022-09-15T13:57:08.220Z,-23728.84
2022-09-15T13:59:55.180Z,-23736.13
2022-09-15T14:02:45.603Z,-23743.88
2022-09-15T14:05:34.994Z,-23745.09
2022-09-15T14:08:32.493Z,-23745.34
2022-09-15T14:11:27.995Z,-23758.94
2022-09-15T14:14:42.366Z,-23755.53
2022-09-15T14:17:31.661Z,-23772.03
2022-09-15T14:20:31.241Z,-23783.94
2022-09-15T14:23:18.540Z,-23793.63
2022-09-15T14:26:05.718Z,-23805.53
2022-09-15T14:29:00.005Z,-23812.81
2022-09-15T14:31:47.698Z,-23830.78
2022-09-15T14:34:37.315Z,-23837.56
2022-09-15T14:37:28.939Z,-23845.84
2022-09-15T14:40:35.540Z,-23861.84
2022-09-15T14:43:32.907Z,-23864.28
2022-09-15T14:46:21.019Z,-23862.34
2022-09-15T14:49:11.744Z,-23853.13
2022-09-15T14:52:01.172Z,-23859.91
2022-09-15T14:54:49.035Z,-23855.53
2022-09-15T14:57:40.949Z,-23858.47
2022-09-15T15:00:32.089Z,-23869.63
2022-09-15T15:03:27.619Z,-23876.91
2022-09-15T15:06:35.640Z,-23874.47
2022-09-15T15:09:47.004Z,-23872.78
2022-09-15T15:12:37.254Z,-23870.38
2022-09-15T15:15:24.632Z,-23867.19
2022-09-15T15:18:37.713Z,-23862.34
2022-09-15T15:21:42.011Z,-23871.56
2022-09-15T15:24:29.539Z,-23874.25
2022-09-15T15:27:38.068Z,-23882.72
2022-09-15T15:30:26.722Z,-23883.69
2022-09-15T15:33:20.151Z,-23890.50
2022-09-15T15:36:11.936Z,-23897.31
2022-09-15T15:39:01.832Z,-23897.31
2022-09-15T15:45:02.215Z,-23906.78
2022-09-15T15:47:49.229Z,-23907.75
2022-09-15T15:50:36.886Z,-23901.44
2022-09-15T15:53:24.293Z,-23904.09
2022-09-15T15:56:12.986Z,-23921.09
2022-09-15T15:59:00.297Z,-23906.53
2022-09-15T16:01:53.114Z,-23891.00
2022-09-15T16:04:40.132Z,-23880.31
2022-09-15T16:07:31.124Z,-23878.84
2022-09-15T16:10:23.493Z,-23878.38
2022-09-15T16:13:14.654Z,-23879.81
2022-09-15T16:16:02.523Z,-23876.91
2022-09-15T16:18:50.171Z,-23873.03
2022-09-15T16:21:42.112Z,-23870.84
2022-09-15T16:24:29.188Z,-23869.38
2022-09-15T16:27:17.913Z,-23867.69
2022-09-15T16:30:08.352Z,-23874.47
2022-09-15T16:32:55.524Z,-23891.00
2022-09-15T16:35:51.131Z,-23904.09
2022-09-15T16:38:38.389Z,-23911.16
2022-09-15T16:41:28.133Z,-23909.94
2022-09-15T16:44:18.914Z,-23905.56
2022-09-15T16:47:06.909Z,-23902.66
2022-09-15T16:49:53.797Z,-23898.28
2022-09-15T16:52:40.700Z,-23895.59
2022-09-15T16:55:31.303Z,-23855.06
2022-09-15T16:58:19.888Z,-23841.47
2022-09-15T17:01:07.630Z,-23842.91
2022-09-15T17:03:54.815Z,-23842.91
2022-09-15T17:06:42.274Z,-23842.91
2022-09-15T17:09:29.262Z,-23840.25
2022-09-15T17:12:16.209Z,-23825.44
2022-09-15T17:15:16.849Z,-23822.53
2022-09-15T17:18:04.207Z,-23818.91
2022-09-15T17:20:51.907Z,-23822.28
2022-09-15T17:23:40.956Z,-23819.38
2022-09-15T17:26:31.222Z,-23819.63
2022-09-15T17:29:18.606Z,-23809.91
2022-09-15T17:32:06.054Z,-23811.38
2022-09-15T17:34:53.085Z,-23813.31
2022-09-15T17:37:39.924Z,-23815.72
2022-09-15T17:40:27.410Z,-23818.41
2022-09-15T17:43:18.135Z,-23813.56
2022-09-15T17:46:05.205Z,-23812.34
2022-09-15T17:48:52.487Z,-23808.47
2022-09-15T17:51:39.463Z,-23804.81
2022-09-15T17:54:26.369Z,-23800.69
2022-09-15T17:57:13.326Z,-23802.88
2022-09-15T18:00:00.272Z,-23797.28
2022-09-15T18:02:53.114Z,-23790.50
2022-09-15T18:05:40.066Z,-23795.34
2022-09-15T18:08:27.577Z,-23793.41
2022-09-15T18:11:15.445Z,-23791.22
2022-09-15T18:14:02.415Z,-23780.78
2022-09-15T18:16:49.865Z,-23772.78
2022-09-15T18:19:36.807Z,-23771.81
2022-09-15T18:22:24.050Z,-23774.47
2022-09-15T18:25:16.722Z,-23775.44
2022-09-15T18:28:04.132Z,-23774.97
2022-09-15T18:30:51.179Z,-23781.28
2022-09-15T18:33:38.071Z,-23783.44
2022-09-15T18:36:24.990Z,-23784.19
2022-09-15T18:39:12.015Z,-23789.28
2022-09-15T18:41:59.243Z,-23783.69
2022-09-15T18:44:46.126Z,-23783.69
2022-09-15T18:47:33.277Z,-23783.19
2022-09-15T18:50:22.613Z,-23785.88
2022-09-15T18:53:09.945Z,-23776.91
2022-09-15T18:55:56.907Z,-23781.03
2022-09-15T18:58:43.850Z,-23769.63
2022-09-15T19:01:30.834Z,-23762.84
2022-09-15T19:04:18.013Z,-23768.16
2022-09-15T19:07:05.017Z,-23766.47
2022-09-15T19:09:56.385Z,-23753.13
2022-09-15T19:12:43.933Z,-23751.41
2022-09-15T19:15:33.763Z,-23756.28
2022-09-15T19:18:21.300Z,-23755.78
2022-09-15T19:21:10.864Z,-23759.91
2022-09-15T19:23:58.639Z,-23758.44
2022-09-15T19:26:47.212Z,-23748.75
2022-09-15T19:29:36.137Z,-23753.84
2022-09-15T19:32:23.238Z,-23757.72
2022-09-15T19:35:11.361Z,-23757.97
2022-09-15T19:37:58.462Z,-23759.91
2022-09-15T19:40:46.082Z,-23765.75
2022-09-15T19:43:35.362Z,-23765.25
2022-09-15T19:46:24.746Z,-23766.47
2022-09-15T19:49:12.080Z,-23763.31
2022-09-15T19:51:58.997Z,-23770.09
2022-09-15T19:54:47.633Z,-23759.41
2022-09-15T19:57:34.694Z,-23764.53
2022-09-15T20:00:21.726Z,-23769.84
2022-09-15T20:03:08.736Z,-23773.97
2022-09-15T20:05:57.919Z,-23755.53
2022-09-15T20:08:47.104Z,-23755.78
2022-09-15T20:11:35.159Z,-23759.66
2022-09-15T20:14:22.078Z,-23767.44
2022-09-15T20:17:09.050Z,-23772.53
2022-09-15T20:19:56.236Z,-23769.63
2022-09-15T20:22:43.150Z,-23768.16
2022-09-15T20:25:30.104Z,-23759.66
2022-09-15T20:28:17.442Z,-23761.84
2022-09-15T20:34:16.508Z,-23766.47
2022-09-15T20:37:03.412Z,-23764.28
2022-09-15T20:39:51.384Z,-23758.69
2022-09-15T20:42:38.417Z,-23762.59
2022-09-15T20:45:25.333Z,-23762.84
2022-09-15T20:48:12.282Z,-23759.41
2022-09-15T20:51:12.401Z,-23760.16
2022-09-15T20:54:01.698Z,-23760.88
2022-09-15T20:56:48.678Z,-23764.28
2022-09-15T20:59:36.849Z,-23762.34
2022-09-15T21:02:23.845Z,-23750.69
2022-09-15T21:05:10.902Z,-23758.44
2022-09-15T21:07:57.770Z,-23755.53
2022-09-15T21:10:45.554Z,-23744.38
2022-09-15T21:13:37.176Z,-23747.78
2022-09-15T21:16:27.114Z,-23752.13
2022-09-15T21:19:14.038Z,-23757.97
2022-09-15T21:22:01.680Z,-23755.06
2022-09-15T21:24:48.622Z,-23759.91
2022-09-15T21:27:35.720Z,-23753.59
2022-09-15T21:30:22.608Z,-23757.00
2022-09-15T21:33:09.858Z,-23753.34
2022-09-15T21:36:11.594Z,-23760.88
2022-09-15T21:38:59.499Z,-23760.41
2022-09-15T21:41:46.427Z,-23749.72
2022-09-15T21:44:33.303Z,-23755.53
2022-09-15T21:47:20.174Z,-23757.47
2022-09-15T21:50:07.599Z,-23755.31
2022-09-15T21:52:54.792Z,-23746.09
2022-09-15T21:55:42.828Z,-23746.09
2022-09-15T21:58:39.021Z,-23743.88
2022-09-15T22:01:31.914Z,-23745.84
2022-09-15T22:04:18.799Z,-23743.41
2022-09-15T22:07:06.107Z,-23738.06
2022-09-15T22:09:53.406Z,-23749.22
2022-09-15T22:12:40.248Z,-23748.75
2022-09-15T22:15:27.144Z,-23750.44
2022-09-15T22:18:13.971Z,-23739.53
2022-09-15T22:21:08.295Z,-23740.97
2022-09-15T22:23:56.929Z,-23740.50
2022-09-15T22:26:43.988Z,-23740.50
2022-09-15T22:29:30.810Z,-23716.47
2022-09-15T22:32:17.688Z,-23716.00
2022-09-15T22:35:05.796Z,-23716.72
2022-09-15T22:37:52.625Z,-23722.03
2022-09-15T22:40:39.457Z,-23723.25
2022-09-15T22:43:26.351Z,-23723.25
2022-09-15T22:46:14.111Z,-23710.41
2022-09-15T22:49:01.614Z,-23708.47
2022-09-15T22:51:48.489Z,-23702.41
2022-09-15T22:54:35.389Z,-23692.44
2022-09-15T22:57:22.253Z,-23693.91
2022-09-15T23:00:10.106Z,-23692.94
2022-09-15T23:02:56.930Z,-23692.44
2022-09-15T23:05:43.783Z,-23696.81
2022-09-15T23:08:30.992Z,-23702.41
2022-09-15T23:11:17.862Z,-23703.38
2022-09-15T23:14:04.728Z,-23705.31
2022-09-15T23:16:51.553Z,-23707.00
2022-09-15T23:19:38.372Z,-23685.19
2022-09-15T23:22:25.199Z,-23678.88
2022-09-15T23:25:12.025Z,-23675.47
2022-09-15T23:27:58.886Z,-23664.78
2022-09-15T23:30:45.857Z,-23651.69
2022-09-15T23:33:33.057Z,-23652.66
2022-09-15T23:36:19.924Z,-23646.84
2022-09-15T23:39:06.796Z,-23650.22
2022-09-15T23:41:53.801Z,-23649.50
2022-09-15T23:44:40.692Z,-23648.53
2022-09-15T23:47:27.570Z,-23650.22
2022-09-15T23:50:14.505Z,-23653.63
2022-09-15T23:53:01.401Z,-23654.84
2022-09-15T23:55:48.318Z,-23655.34
2022-09-15T23:58:35.176Z,-23669.16
